Ashland, Maine
Current Conditions -  °F | °C
As of 3:35 PM on Monday 26 Jan 2015 (Local Time) from KPQI Reporting Station
Clear Clear  
Wind Chill: -20°   Ceiling: Unl
Heat Index: -13°   Visibility: 10mi
Dew Point: -24°   Wind: 8mph
Humidity: 40%   Direction: 70°ENE
Pressure: 30.18"   Gusts: NA
Location:  46.63°N, 68.41°W
Report Text: KPQI 262035Z AUTO 07007KT 10SM CLR M13/M24 A3018 RMK AO1
Loading
Personal Weather Stations






























Interactive Weather Map New forecast layout! Learn more

10-Day Weather Forecast

Advertisements
Track Severe Weather on mobile